Alexandria, KY

8:28 AM EST on December 21, 2014 (GMT -0500)
Taylor Creek | Change Station
CLOSE
Current Station
Personal Weather Station
Location: Taylor Mill, KY
Elevation: 827 ft
Nearby Weather Stations

Elev 827 ft 39.01 °N, 84.51 °W | Updated 18 seconds ago

Mostly Cloudy
Mostly Cloudy
28.2 °F
Feels Like 28 °F
N
0.2
Wind Variable Wind from SE
Gusts 2.5 mph

Today
High -- | Low -- °F
--% Chance of Precip.
Yesterday
High -- | Low -- °F
Precip. -- in
7:52 AM 5:18 PM
Waning Crescent, 0% visible
Pressure 30.35 in
Visibility 3.0 miles
Clouds Mostly Cloudy 2000 ft
Windchill 28 °F
Dew Point 22 °F
Humidity 77%
Rainfall 0.00 in
Snow Depth Not available.
UV 0 out of 12
Pollen .10 out of 12
Air Quality Not available.
Flu Activity Not available.
METAR KLUK 211253Z VRB03KT 3SM BR BKN020 M04/M05 A3034 RMK AO2 SLP278 T10441050

More Conditions Fewer Conditions

Pressure 30.35 in
Visibility 3.0 miles
Clouds Mostly Cloudy 2000 ft
Windchill 28 °F
Dew Point 22 °F
Humidity 77%
Rainfall 0.00 in
Snow Depth Not available.
UV 0 out of 12
Pollen .10 out of 12
Air Quality Not available.
Flu Activity Not available.
METAR KLUK 211253Z VRB03KT 3SM BR BKN020 M04/M05 A3034 RMK AO2 SLP278 T10441050

More Conditions Fewer Conditions

10-Day Weather Forecast

Almanac

Astronomy

Dec. 21, 2014 Rise Set
Actual Time
Civil Twilight
Nautical Twilight
Astronomical Twilight
Moon
Length of Visible Light
Length of Day
Tomorrow will be .
, % of the Moon is Illuminated

Today's Extremes

State Highs State Lows

Community

WunderPhotos

Upload Photos

1,779,386 photos uploaded!

WunderBlogs® & News

Nearby

Air Quality

  Air Quality AQ Index Pollutant
Not available.

Snow Depth

Station Depth Elevation

Earthquake Activity

City Distance Mag. Time & Date
Minimum magnitude displayed is 2.5.

Coastal Water Temperatures

Place Temperature

Nearby Weather Stations